sensor_id;sensor_type;location;lat;lon;timestamp;P1;durP1;ratioP1;P2;durP2;ratioP2
74626;SDS011;63132;52.268;5.192;2023-08-06T00:01:22;25.27;;;17.27;;
74626;SDS011;63132;52.268;5.192;2023-08-06T00:03:47;23.08;;;16.27;;
74626;SDS011;63132;52.268;5.192;2023-08-06T00:06:13;26.05;;;15.52;;
74626;SDS011;63132;52.268;5.192;2023-08-06T00:11:03;22.17;;;15.23;;
74626;SDS011;63132;52.268;5.192;2023-08-06T00:15:54;24.13;;;15.37;;
74626;SDS011;63132;52.268;5.192;2023-08-06T00:18:19;25.35;;;16.10;;
74626;SDS011;63132;52.268;5.192;2023-08-06T00:23:09;27.80;;;15.87;;
74626;SDS011;63132;52.268;5.192;2023-08-06T00:28:00;20.05;;;14.27;;
74626;SDS011;63132;52.268;5.192;2023-08-06T00:30:25;25.48;;;14.48;;
74626;SDS011;63132;52.268;5.192;2023-08-06T00:32:50;21.42;;;13.32;;
74626;SDS011;63132;52.268;5.192;2023-08-06T00:35:16;25.92;;;15.85;;
74626;SDS011;63132;52.268;5.192;2023-08-06T00:40:07;26.27;;;15.02;;
74626;SDS011;63132;52.268;5.192;2023-08-06T00:42:33;23.52;;;14.43;;
74626;SDS011;63132;52.268;5.192;2023-08-06T00:44:59;25.38;;;14.98;;
74626;SDS011;63132;52.268;5.192;2023-08-06T00:49:50;23.52;;;13.85;;
74626;SDS011;63132;52.268;5.192;2023-08-06T00:54:41;20.43;;;13.47;;
74626;SDS011;63132;52.268;5.192;2023-08-06T00:59:33;24.00;;;13.30;;
74626;SDS011;63132;52.268;5.192;2023-08-06T01:01:59;24.75;;;13.60;;
74626;SDS011;63132;52.268;5.192;2023-08-06T01:04:24;20.42;;;12.73;;
74626;SDS011;63132;52.268;5.192;2023-08-06T01:06:58;24.15;;;13.65;;
74626;SDS011;63132;52.268;5.192;2023-08-06T01:14:54;23.08;;;13.20;;
74626;SDS011;63132;52.268;5.192;2023-08-06T01:17:27;23.92;;;13.05;;
74626;SDS011;63132;52.268;5.192;2023-08-06T01:22:18;22.63;;;13.27;;
74626;SDS011;63132;52.268;5.192;2023-08-06T01:24:46;19.98;;;12.70;;
74626;SDS011;63132;52.268;5.192;2023-08-06T01:27:17;22.35;;;13.75;;
74626;SDS011;63132;52.268;5.192;2023-08-06T01:30:12;19.25;;;13.38;;
74626;SDS011;63132;52.268;5.192;2023-08-06T01:32:39;19.63;;;12.85;;
74626;SDS011;63132;52.268;5.192;2023-08-06T01:35:12;18.80;;;11.70;;
74626;SDS011;63132;52.268;5.192;2023-08-06T01:37:40;23.08;;;12.98;;
74626;SDS011;63132;52.268;5.192;2023-08-06T01:40:15;24.40;;;14.45;;
74626;SDS011;63132;52.268;5.192;2023-08-06T01:42:40;22.38;;;13.98;;
74626;SDS011;63132;52.268;5.192;2023-08-06T01:47:34;21.10;;;14.25;;
74626;SDS011;63132;52.268;5.192;2023-08-06T01:50:00;31.17;;;16.45;;
74626;SDS011;63132;52.268;5.192;2023-08-06T01:54:51;24.13;;;14.85;;
74626;SDS011;63132;52.268;5.192;2023-08-06T01:59:41;23.92;;;14.98;;
74626;SDS011;63132;52.268;5.192;2023-08-06T02:02:07;30.65;;;16.77;;
74626;SDS011;63132;52.268;5.192;2023-08-06T02:06:57;28.67;;;17.27;;
74626;SDS011;63132;52.268;5.192;2023-08-06T02:11:48;28.83;;;17.30;;
74626;SDS011;63132;52.268;5.192;2023-08-06T02:16:39;30.90;;;19.70;;
74626;SDS011;63132;52.268;5.192;2023-08-06T02:21:29;35.35;;;20.23;;
74626;SDS011;63132;52.268;5.192;2023-08-06T02:26:20;33.00;;;20.17;;
74626;SDS011;63132;52.268;5.192;2023-08-06T02:31:10;35.80;;;19.73;;
74626;SDS011;63132;52.268;5.192;2023-08-06T02:33:36;34.67;;;19.08;;
74626;SDS011;63132;52.268;5.192;2023-08-06T02:36:02;33.65;;;19.05;;
74626;SDS011;63132;52.268;5.192;2023-08-06T02:38:28;37.85;;;20.88;;
74626;SDS011;63132;52.268;5.192;2023-08-06T02:43:20;37.28;;;20.98;;
74626;SDS011;63132;52.268;5.192;2023-08-06T02:48:10;39.03;;;19.98;;
74626;SDS011;63132;52.268;5.192;2023-08-06T02:50:42;37.17;;;21.17;;
74626;SDS011;63132;52.268;5.192;2023-08-06T02:53:08;38.47;;;21.20;;
74626;SDS011;63132;52.268;5.192;2023-08-06T02:55:34;37.08;;;23.30;;
74626;SDS011;63132;52.268;5.192;2023-08-06T02:58:00;39.65;;;23.08;;
74626;SDS011;63132;52.268;5.192;2023-08-06T03:00:26;37.83;;;22.52;;
74626;SDS011;63132;52.268;5.192;2023-08-06T03:05:16;39.27;;;22.43;;
74626;SDS011;63132;52.268;5.192;2023-08-06T03:10:07;36.80;;;21.97;;
74626;SDS011;63132;52.268;5.192;2023-08-06T03:14:57;38.10;;;22.33;;
74626;SDS011;63132;52.268;5.192;2023-08-06T03:17:23;37.88;;;23.50;;
74626;SDS011;63132;52.268;5.192;2023-08-06T03:22:14;36.85;;;22.48;;
74626;SDS011;63132;52.268;5.192;2023-08-06T03:24:39;43.78;;;24.05;;
74626;SDS011;63132;52.268;5.192;2023-08-06T03:29:30;40.28;;;23.95;;
74626;SDS011;63132;52.268;5.192;2023-08-06T03:34:20;37.70;;;22.13;;
74626;SDS011;63132;52.268;5.192;2023-08-06T03:39:11;37.40;;;21.97;;
74626;SDS011;63132;52.268;5.192;2023-08-06T03:41:38;39.67;;;24.40;;
74626;SDS011;63132;52.268;5.192;2023-08-06T03:46:29;31.00;;;18.27;;
74626;SDS011;63132;52.268;5.192;2023-08-06T03:48:57;29.80;;;18.73;;
74626;SDS011;63132;52.268;5.192;2023-08-06T03:53:47;35.88;;;19.17;;
74626;SDS011;63132;52.268;5.192;2023-08-06T03:58:38;27.77;;;16.77;;
74626;SDS011;63132;52.268;5.192;2023-08-06T04:03:29;34.47;;;17.75;;
74626;SDS011;63132;52.268;5.192;2023-08-06T04:08:19;27.45;;;17.08;;
74626;SDS011;63132;52.268;5.192;2023-08-06T04:13:10;33.20;;;18.63;;
74626;SDS011;63132;52.268;5.192;2023-08-06T04:18:00;32.10;;;18.73;;
74626;SDS011;63132;52.268;5.192;2023-08-06T04:22:53;35.58;;;18.10;;
74626;SDS011;63132;52.268;5.192;2023-08-06T04:25:19;42.72;;;20.42;;
74626;SDS011;63132;52.268;5.192;2023-08-06T04:27:46;36.72;;;20.27;;
74626;SDS011;63132;52.268;5.192;2023-08-06T04:30:12;36.10;;;18.13;;
74626;SDS011;63132;52.268;5.192;2023-08-06T04:35:04;33.95;;;19.05;;
74626;SDS011;63132;52.268;5.192;2023-08-06T04:37:29;40.00;;;20.30;;
74626;SDS011;63132;52.268;5.192;2023-08-06T04:39:55;45.70;;;20.98;;
74626;SDS011;63132;52.268;5.192;2023-08-06T04:42:20;45.70;;;21.48;;
74626;SDS011;63132;52.268;5.192;2023-08-06T04:44:45;49.22;;;20.75;;
74626;SDS011;63132;52.268;5.192;2023-08-06T04:49:36;38.27;;;20.67;;
74626;SDS011;63132;52.268;5.192;2023-08-06T04:54:26;35.88;;;20.40;;
74626;SDS011;63132;52.268;5.192;2023-08-06T04:56:52;39.65;;;22.10;;
74626;SDS011;63132;52.268;5.192;2023-08-06T04:59:17;46.17;;;22.92;;
74626;SDS011;63132;52.268;5.192;2023-08-06T05:01:42;50.00;;;23.92;;
74626;SDS011;63132;52.268;5.192;2023-08-06T05:04:08;42.17;;;23.48;;
74626;SDS011;63132;52.268;5.192;2023-08-06T05:08:58;44.67;;;24.60;;
74626;SDS011;63132;52.268;5.192;2023-08-06T05:13:49;46.33;;;25.15;;
74626;SDS011;63132;52.268;5.192;2023-08-06T05:18:39;46.70;;;25.97;;
74626;SDS011;63132;52.268;5.192;2023-08-06T05:21:06;46.47;;;26.85;;
74626;SDS011;63132;52.268;5.192;2023-08-06T05:25:57;50.10;;;25.17;;
74626;SDS011;63132;52.268;5.192;2023-08-06T05:28:22;46.50;;;25.95;;
74626;SDS011;63132;52.268;5.192;2023-08-06T05:30:48;49.15;;;26.08;;
74626;SDS011;63132;52.268;5.192;2023-08-06T05:33:13;44.80;;;26.13;;
74626;SDS011;63132;52.268;5.192;2023-08-06T05:35:40;42.75;;;25.92;;
74626;SDS011;63132;52.268;5.192;2023-08-06T05:38:06;40.80;;;24.58;;
74626;SDS011;63132;52.268;5.192;2023-08-06T05:40:33;40.80;;;24.20;;
74626;SDS011;63132;52.268;5.192;2023-08-06T05:42:58;43.20;;;24.20;;
74626;SDS011;63132;52.268;5.192;2023-08-06T05:45:24;38.08;;;23.35;;
74626;SDS011;63132;52.268;5.192;2023-08-06T05:47:49;41.42;;;23.65;;
74626;SDS011;63132;52.268;5.192;2023-08-06T05:50:15;43.17;;;25.95;;
74626;SDS011;63132;52.268;5.192;2023-08-06T05:55:05;39.47;;;23.48;;
74626;SDS011;63132;52.268;5.192;2023-08-06T05:57:31;46.92;;;24.48;;
74626;SDS011;63132;52.268;5.192;2023-08-06T05:59:56;42.15;;;26.25;;
74626;SDS011;63132;52.268;5.192;2023-08-06T06:02:22;47.13;;;24.55;;
74626;SDS011;63132;52.268;5.192;2023-08-06T06:04:47;39.63;;;23.35;;
74626;SDS011;63132;52.268;5.192;2023-08-06T06:07:12;36.80;;;23.77;;
74626;SDS011;63132;52.268;5.192;2023-08-06T06:09:39;36.58;;;22.10;;
74626;SDS011;63132;52.268;5.192;2023-08-06T06:12:04;33.25;;;21.55;;
74626;SDS011;63132;52.268;5.192;2023-08-06T06:14:30;37.28;;;22.77;;
74626;SDS011;63132;52.268;5.192;2023-08-06T06:16:56;28.60;;;20.45;;
74626;SDS011;63132;52.268;5.192;2023-08-06T06:19:21;28.35;;;19.15;;
74626;SDS011;63132;52.268;5.192;2023-08-06T06:21:46;30.02;;;19.85;;
74626;SDS011;63132;52.268;5.192;2023-08-06T06:24:12;19.75;;;12.65;;
74626;SDS011;63132;52.268;5.192;2023-08-06T06:26:37;15.85;;;11.85;;
74626;SDS011;63132;52.268;5.192;2023-08-06T06:29:03;12.43;;;9.02;;
74626;SDS011;63132;52.268;5.192;2023-08-06T06:31:28;16.05;;;9.25;;
74626;SDS011;63132;52.268;5.192;2023-08-06T06:33:54;9.60;;;7.00;;
74626;SDS011;63132;52.268;5.192;2023-08-06T06:36:19;7.50;;;5.15;;
74626;SDS011;63132;52.268;5.192;2023-08-06T06:41:10;8.68;;;5.90;;
74626;SDS011;63132;52.268;5.192;2023-08-06T06:43:36;7.55;;;5.38;;
74626;SDS011;63132;52.268;5.192;2023-08-06T06:46:02;8.82;;;4.70;;
74626;SDS011;63132;52.268;5.192;2023-08-06T06:50:54;6.40;;;4.30;;
74626;SDS011;63132;52.268;5.192;2023-08-06T06:53:20;7.43;;;4.32;;
74626;SDS011;63132;52.268;5.192;2023-08-06T06:55:48;7.78;;;4.93;;
74626;SDS011;63132;52.268;5.192;2023-08-06T07:00:40;9.45;;;6.18;;
74626;SDS011;63132;52.268;5.192;2023-08-06T07:05:31;9.87;;;6.17;;
74626;SDS011;63132;52.268;5.192;2023-08-06T07:07:57;7.82;;;5.78;;
74626;SDS011;63132;52.268;5.192;2023-08-06T07:12:47;6.80;;;5.07;;
74626;SDS011;63132;52.268;5.192;2023-08-06T07:17:38;8.52;;;5.43;;
74626;SDS011;63132;52.268;5.192;2023-08-06T07:22:29;7.53;;;4.78;;
74626;SDS011;63132;52.268;5.192;2023-08-06T07:27:20;7.70;;;5.35;;
74626;SDS011;63132;52.268;5.192;2023-08-06T07:32:10;6.87;;;4.00;;
74626;SDS011;63132;52.268;5.192;2023-08-06T07:37:01;8.10;;;5.68;;
74626;SDS011;63132;52.268;5.192;2023-08-06T07:41:53;8.57;;;5.10;;
74626;SDS011;63132;52.268;5.192;2023-08-06T07:46:44;8.63;;;5.70;;
74626;SDS011;63132;52.268;5.192;2023-08-06T07:49:09;8.10;;;5.57;;
74626;SDS011;63132;52.268;5.192;2023-08-06T07:51:36;10.25;;;5.10;;
74626;SDS011;63132;52.268;5.192;2023-08-06T07:56:26;8.27;;;5.90;;
74626;SDS011;63132;52.268;5.192;2023-08-06T08:01:17;9.73;;;6.10;;
74626;SDS011;63132;52.268;5.192;2023-08-06T08:06:08;9.73;;;6.83;;
74626;SDS011;63132;52.268;5.192;2023-08-06T08:10:58;12.98;;;7.05;;
74626;SDS011;63132;52.268;5.192;2023-08-06T08:13:25;9.10;;;6.20;;
74626;SDS011;63132;52.268;5.192;2023-08-06T08:18:21;12.18;;;4.65;;
74626;SDS011;63132;52.268;5.192;2023-08-06T08:23:11;12.83;;;5.83;;
74626;SDS011;63132;52.268;5.192;2023-08-06T08:28:02;11.07;;;5.70;;
74626;SDS011;63132;52.268;5.192;2023-08-06T08:32:52;7.68;;;5.78;;
74626;SDS011;63132;52.268;5.192;2023-08-06T08:37:43;11.40;;;6.47;;
74626;SDS011;63132;52.268;5.192;2023-08-06T08:42:34;12.23;;;7.55;;
74626;SDS011;63132;52.268;5.192;2023-08-06T08:45:02;11.02;;;7.22;;
74626;SDS011;63132;52.268;5.192;2023-08-06T08:47:29;9.88;;;7.25;;
74626;SDS011;63132;52.268;5.192;2023-08-06T08:49:55;11.02;;;7.63;;
74626;SDS011;63132;52.268;5.192;2023-08-06T08:52:22;13.23;;;7.72;;
74626;SDS011;63132;52.268;5.192;2023-08-06T08:54:49;10.18;;;7.63;;
74626;SDS011;63132;52.268;5.192;2023-08-06T08:57:17;12.18;;;7.15;;
74626;SDS011;63132;52.268;5.192;2023-08-06T09:02:08;14.52;;;8.35;;
74626;SDS011;63132;52.268;5.192;2023-08-06T09:04:36;11.57;;;7.97;;
74626;SDS011;63132;52.268;5.192;2023-08-06T09:07:02;11.52;;;7.30;;
74626;SDS011;63132;52.268;5.192;2023-08-06T09:09:33;11.90;;;8.05;;
74626;SDS011;63132;52.268;5.192;2023-08-06T09:12:07;10.65;;;7.53;;
74626;SDS011;63132;52.268;5.192;2023-08-06T09:14:37;15.38;;;7.53;;
74626;SDS011;63132;52.268;5.192;2023-08-06T09:19:29;15.88;;;9.20;;
74626;SDS011;63132;52.268;5.192;2023-08-06T09:24:20;15.05;;;9.45;;
74626;SDS011;63132;52.268;5.192;2023-08-06T09:26:47;16.38;;;9.77;;
74626;SDS011;63132;52.268;5.192;2023-08-06T09:31:41;18.42;;;9.57;;
74626;SDS011;63132;52.268;5.192;2023-08-06T09:34:17;17.42;;;9.30;;
74626;SDS011;63132;52.268;5.192;2023-08-06T09:36:53;19.65;;;10.10;;
74626;SDS011;63132;52.268;5.192;2023-08-06T09:39:42;17.63;;;10.35;;
74626;SDS011;63132;52.268;5.192;2023-08-06T09:44:33;19.05;;;9.65;;
74626;SDS011;63132;52.268;5.192;2023-08-06T09:49:26;19.50;;;9.88;;
74626;SDS011;63132;52.268;5.192;2023-08-06T09:52:10;27.15;;;10.77;;
74626;SDS011;63132;52.268;5.192;2023-08-06T09:54:37;21.40;;;11.02;;
74626;SDS011;63132;52.268;5.192;2023-08-06T09:59:28;18.23;;;9.40;;
74626;SDS011;63132;52.268;5.192;2023-08-06T10:01:55;22.45;;;10.02;;
74626;SDS011;63132;52.268;5.192;2023-08-06T10:06:47;21.48;;;10.95;;
74626;SDS011;63132;52.268;5.192;2023-08-06T10:09:13;23.40;;;11.98;;
74626;SDS011;63132;52.268;5.192;2023-08-06T10:14:06;26.30;;;12.68;;
74626;SDS011;63132;52.268;5.192;2023-08-06T10:16:39;30.30;;;11.18;;
74626;SDS011;63132;52.268;5.192;2023-08-06T10:19:05;26.45;;;11.02;;
74626;SDS011;63132;52.268;5.192;2023-08-06T10:21:33;28.77;;;10.20;;
74626;SDS011;63132;52.268;5.192;2023-08-06T10:26:28;23.05;;;8.70;;
74626;SDS011;63132;52.268;5.192;2023-08-06T10:28:54;30.33;;;9.15;;
74626;SDS011;63132;52.268;5.192;2023-08-06T10:33:45;21.58;;;7.57;;
74626;SDS011;63132;52.268;5.192;2023-08-06T10:36:13;18.98;;;7.68;;
74626;SDS011;63132;52.268;5.192;2023-08-06T10:38:46;19.23;;;6.13;;
74626;SDS011;63132;52.268;5.192;2023-08-06T10:41:15;19.38;;;6.95;;
74626;SDS011;63132;52.268;5.192;2023-08-06T10:43:42;15.85;;;6.28;;
74626;SDS011;63132;52.268;5.192;2023-08-06T10:46:10;16.33;;;5.70;;
74626;SDS011;63132;52.268;5.192;2023-08-06T10:53:27;17.17;;;5.95;;
74626;SDS011;63132;52.268;5.192;2023-08-06T10:58:18;13.13;;;5.47;;
74626;SDS011;63132;52.268;5.192;2023-08-06T11:03:09;12.93;;;5.45;;
74626;SDS011;63132;52.268;5.192;2023-08-06T11:08:00;18.42;;;5.28;;
74626;SDS011;63132;52.268;5.192;2023-08-06T11:12:51;16.27;;;5.10;;
74626;SDS011;63132;52.268;5.192;2023-08-06T11:15:16;12.52;;;4.10;;
74626;SDS011;63132;52.268;5.192;2023-08-06T11:17:42;14.13;;;5.97;;
74626;SDS011;63132;52.268;5.192;2023-08-06T11:22:33;12.00;;;5.13;;
74626;SDS011;63132;52.268;5.192;2023-08-06T11:24:58;13.50;;;5.07;;
74626;SDS011;63132;52.268;5.192;2023-08-06T11:27:26;13.95;;;4.97;;
74626;SDS011;63132;52.268;5.192;2023-08-06T11:29:53;13.15;;;5.45;;
74626;SDS011;63132;52.268;5.192;2023-08-06T11:34:43;11.83;;;4.87;;
74626;SDS011;63132;52.268;5.192;2023-08-06T11:39:35;11.30;;;4.15;;
74626;SDS011;63132;52.268;5.192;2023-08-06T11:42:02;12.57;;;4.35;;
74626;SDS011;63132;52.268;5.192;2023-08-06T11:44:32;12.93;;;4.60;;
74626;SDS011;63132;52.268;5.192;2023-08-06T11:47:00;10.45;;;4.10;;
74626;SDS011;63132;52.268;5.192;2023-08-06T11:49:47;12.10;;;4.30;;
74626;SDS011;63132;52.268;5.192;2023-08-06T11:52:22;10.55;;;3.70;;
74626;SDS011;63132;52.268;5.192;2023-08-06T11:57:31;9.73;;;4.18;;
74626;SDS011;63132;52.268;5.192;2023-08-06T11:59:58;6.53;;;3.42;;
74626;SDS011;63132;52.268;5.192;2023-08-06T12:02:28;8.68;;;3.63;;
74626;SDS011;63132;52.268;5.192;2023-08-06T12:07:26;8.65;;;3.15;;
74626;SDS011;63132;52.268;5.192;2023-08-06T12:09:55;10.00;;;3.83;;
74626;SDS011;63132;52.268;5.192;2023-08-06T12:12:20;10.38;;;3.58;;
74626;SDS011;63132;52.268;5.192;2023-08-06T12:14:46;8.50;;;3.95;;
74626;SDS011;63132;52.268;5.192;2023-08-06T12:17:11;8.23;;;3.60;;
74626;SDS011;63132;52.268;5.192;2023-08-06T12:22:02;7.93;;;3.50;;
74626;SDS011;63132;52.268;5.192;2023-08-06T12:24:27;13.23;;;4.32;;
74626;SDS011;63132;52.268;5.192;2023-08-06T12:26:56;12.18;;;4.10;;
74626;SDS011;63132;52.268;5.192;2023-08-06T12:29:22;12.70;;;3.90;;
74626;SDS011;63132;52.268;5.192;2023-08-06T12:31:48;11.57;;;3.80;;
74626;SDS011;63132;52.268;5.192;2023-08-06T12:34:13;8.63;;;4.07;;
74626;SDS011;63132;52.268;5.192;2023-08-06T12:36:40;7.00;;;4.05;;
74626;SDS011;63132;52.268;5.192;2023-08-06T12:39:05;9.90;;;4.22;;
74626;SDS011;63132;52.268;5.192;2023-08-06T12:41:30;8.35;;;3.75;;
74626;SDS011;63132;52.268;5.192;2023-08-06T12:43:56;11.90;;;4.28;;
74626;SDS011;63132;52.268;5.192;2023-08-06T12:46:21;11.75;;;4.65;;
74626;SDS011;63132;52.268;5.192;2023-08-06T12:48:46;10.80;;;4.07;;
74626;SDS011;63132;52.268;5.192;2023-08-06T12:51:13;10.13;;;4.85;;
74626;SDS011;63132;52.268;5.192;2023-08-06T12:53:38;11.88;;;4.07;;
74626;SDS011;63132;52.268;5.192;2023-08-06T12:56:04;9.00;;;4.85;;
74626;SDS011;63132;52.268;5.192;2023-08-06T12:58:29;13.73;;;4.50;;
74626;SDS011;63132;52.268;5.192;2023-08-06T13:00:54;10.02;;;4.07;;
74626;SDS011;63132;52.268;5.192;2023-08-06T13:03:20;10.25;;;3.60;;
74626;SDS011;63132;52.268;5.192;2023-08-06T13:05:46;6.05;;;3.03;;
74626;SDS011;63132;52.268;5.192;2023-08-06T13:08:11;6.68;;;3.38;;
74626;SDS011;63132;52.268;5.192;2023-08-06T13:10:36;8.88;;;2.92;;
74626;SDS011;63132;52.268;5.192;2023-08-06T13:13:02;5.85;;;3.20;;
74626;SDS011;63132;52.268;5.192;2023-08-06T13:15:27;9.48;;;3.38;;
74626;SDS011;63132;52.268;5.192;2023-08-06T13:17:52;8.55;;;3.45;;
74626;SDS011;63132;52.268;5.192;2023-08-06T13:20:18;7.85;;;3.28;;
74626;SDS011;63132;52.268;5.192;2023-08-06T13:22:44;6.97;;;3.38;;
74626;SDS011;63132;52.268;5.192;2023-08-06T13:25:11;7.38;;;3.63;;
74626;SDS011;63132;52.268;5.192;2023-08-06T13:27:37;5.90;;;3.03;;
74626;SDS011;63132;52.268;5.192;2023-08-06T13:30:02;7.45;;;2.78;;
74626;SDS011;63132;52.268;5.192;2023-08-06T13:32:28;8.73;;;3.30;;
74626;SDS011;63132;52.268;5.192;2023-08-06T13:34:53;6.90;;;3.65;;
74626;SDS011;63132;52.268;5.192;2023-08-06T13:37:18;7.25;;;3.63;;
74626;SDS011;63132;52.268;5.192;2023-08-06T13:39:44;7.85;;;3.40;;
74626;SDS011;63132;52.268;5.192;2023-08-06T13:42:09;5.15;;;3.40;;
74626;SDS011;63132;52.268;5.192;2023-08-06T13:44:35;7.78;;;4.25;;
74626;SDS011;63132;52.268;5.192;2023-08-06T13:47:01;6.13;;;3.40;;
74626;SDS011;63132;52.268;5.192;2023-08-06T13:49:27;7.88;;;3.70;;
74626;SDS011;63132;52.268;5.192;2023-08-06T13:51:52;6.20;;;3.40;;
74626;SDS011;63132;52.268;5.192;2023-08-06T13:54:17;7.25;;;3.72;;
74626;SDS011;63132;52.268;5.192;2023-08-06T13:56:43;5.25;;;3.22;;
74626;SDS011;63132;52.268;5.192;2023-08-06T13:59:08;4.60;;;3.00;;
74626;SDS011;63132;52.268;5.192;2023-08-06T14:01:38;10.95;;;3.88;;
74626;SDS011;63132;52.268;5.192;2023-08-06T14:04:03;5.82;;;3.65;;
74626;SDS011;63132;52.268;5.192;2023-08-06T14:06:29;9.23;;;3.75;;
74626;SDS011;63132;52.268;5.192;2023-08-06T14:08:55;8.35;;;3.33;;
74626;SDS011;63132;52.268;5.192;2023-08-06T14:11:20;7.07;;;3.10;;
74626;SDS011;63132;52.268;5.192;2023-08-06T14:13:46;6.32;;;3.25;;
74626;SDS011;63132;52.268;5.192;2023-08-06T14:16:11;4.75;;;2.50;;
74626;SDS011;63132;52.268;5.192;2023-08-06T14:18:37;5.50;;;2.20;;
74626;SDS011;63132;52.268;5.192;2023-08-06T14:21:03;5.35;;;2.30;;
74626;SDS011;63132;52.268;5.192;2023-08-06T14:23:28;5.55;;;2.40;;
74626;SDS011;63132;52.268;5.192;2023-08-06T14:25:54;6.53;;;3.03;;
74626;SDS011;63132;52.268;5.192;2023-08-06T14:28:19;6.28;;;2.03;;
74626;SDS011;63132;52.268;5.192;2023-08-06T14:30:45;4.22;;;1.83;;
74626;SDS011;63132;52.268;5.192;2023-08-06T14:33:10;2.65;;;1.48;;
74626;SDS011;63132;52.268;5.192;2023-08-06T14:35:35;3.78;;;1.70;;
74626;SDS011;63132;52.268;5.192;2023-08-06T14:38:01;3.33;;;1.27;;
74626;SDS011;63132;52.268;5.192;2023-08-06T14:40:26;4.00;;;1.60;;
74626;SDS011;63132;52.268;5.192;2023-08-06T14:42:58;5.45;;;1.88;;
74626;SDS011;63132;52.268;5.192;2023-08-06T14:45:23;4.80;;;1.60;;
74626;SDS011;63132;52.268;5.192;2023-08-06T14:47:49;12.55;;;1.73;;
74626;SDS011;63132;52.268;5.192;2023-08-06T14:50:14;7.30;;;1.40;;
74626;SDS011;63132;52.268;5.192;2023-08-06T14:52:40;7.53;;;1.77;;
74626;SDS011;63132;52.268;5.192;2023-08-06T14:55:05;6.55;;;1.50;;
74626;SDS011;63132;52.268;5.192;2023-08-06T14:57:31;4.72;;;1.00;;
74626;SDS011;63132;52.268;5.192;2023-08-06T14:59:56;7.90;;;1.25;;
74626;SDS011;63132;52.268;5.192;2023-08-06T15:02:22;7.82;;;1.52;;
74626;SDS011;63132;52.268;5.192;2023-08-06T15:04:47;12.40;;;2.20;;
74626;SDS011;63132;52.268;5.192;2023-08-06T15:07:13;6.07;;;1.45;;
74626;SDS011;63132;52.268;5.192;2023-08-06T15:09:38;7.15;;;1.17;;
74626;SDS011;63132;52.268;5.192;2023-08-06T15:12:04;5.72;;;0.88;;
74626;SDS011;63132;52.268;5.192;2023-08-06T15:14:29;5.32;;;0.90;;
74626;SDS011;63132;52.268;5.192;2023-08-06T15:16:55;6.43;;;1.25;;
74626;SDS011;63132;52.268;5.192;2023-08-06T15:19:22;9.60;;;1.40;;
74626;SDS011;63132;52.268;5.192;2023-08-06T15:21:48;8.52;;;1.05;;
74626;SDS011;63132;52.268;5.192;2023-08-06T15:24:13;6.82;;;1.15;;
74626;SDS011;63132;52.268;5.192;2023-08-06T15:26:39;9.32;;;1.20;;
74626;SDS011;63132;52.268;5.192;2023-08-06T15:29:05;14.68;;;1.50;;
74626;SDS011;63132;52.268;5.192;2023-08-06T15:31:40;10.80;;;1.55;;
74626;SDS011;63132;52.268;5.192;2023-08-06T15:34:06;4.30;;;0.82;;
74626;SDS011;63132;52.268;5.192;2023-08-06T15:36:32;6.88;;;1.15;;
74626;SDS011;63132;52.268;5.192;2023-08-06T15:38:59;6.68;;;1.27;;
74626;SDS011;63132;52.268;5.192;2023-08-06T15:41:25;6.78;;;1.73;;
74626;SDS011;63132;52.268;5.192;2023-08-06T15:43:50;8.38;;;1.42;;
74626;SDS011;63132;52.268;5.192;2023-08-06T15:46:15;10.65;;;1.25;;
74626;SDS011;63132;52.268;5.192;2023-08-06T15:48:41;10.63;;;0.90;;
74626;SDS011;63132;52.268;5.192;2023-08-06T15:51:06;9.60;;;1.05;;
74626;SDS011;63132;52.268;5.192;2023-08-06T15:53:33;7.75;;;1.02;;
74626;SDS011;63132;52.268;5.192;2023-08-06T15:55:58;10.02;;;1.48;;
74626;SDS011;63132;52.268;5.192;2023-08-06T15:58:24;11.07;;;1.70;;
74626;SDS011;63132;52.268;5.192;2023-08-06T16:00:49;10.25;;;1.20;;
74626;SDS011;63132;52.268;5.192;2023-08-06T16:03:15;13.95;;;1.33;;
74626;SDS011;63132;52.268;5.192;2023-08-06T16:05:41;11.35;;;2.03;;
74626;SDS011;63132;52.268;5.192;2023-08-06T16:08:08;6.07;;;1.30;;
74626;SDS011;63132;52.268;5.192;2023-08-06T16:10:33;6.32;;;0.90;;
74626;SDS011;63132;52.268;5.192;2023-08-06T16:12:59;6.13;;;1.23;;
74626;SDS011;63132;52.268;5.192;2023-08-06T16:15:24;3.70;;;1.23;;
74626;SDS011;63132;52.268;5.192;2023-08-06T16:20:14;10.18;;;1.48;;
74626;SDS011;63132;52.268;5.192;2023-08-06T16:22:41;9.93;;;1.30;;
74626;SDS011;63132;52.268;5.192;2023-08-06T16:25:07;14.02;;;1.30;;
74626;SDS011;63132;52.268;5.192;2023-08-06T16:27:37;7.95;;;1.60;;
74626;SDS011;63132;52.268;5.192;2023-08-06T16:30:03;8.77;;;1.17;;
74626;SDS011;63132;52.268;5.192;2023-08-06T16:32:28;2.60;;;0.80;;
74626;SDS011;63132;52.268;5.192;2023-08-06T16:34:54;5.05;;;0.90;;
74626;SDS011;63132;52.268;5.192;2023-08-06T16:37:19;5.65;;;1.13;;
74626;SDS011;63132;52.268;5.192;2023-08-06T16:39:45;7.80;;;1.30;;
74626;SDS011;63132;52.268;5.192;2023-08-06T16:42:11;12.90;;;1.60;;
74626;SDS011;63132;52.268;5.192;2023-08-06T16:44:36;6.78;;;1.10;;
74626;SDS011;63132;52.268;5.192;2023-08-06T16:47:02;4.68;;;0.90;;
74626;SDS011;63132;52.268;5.192;2023-08-06T16:49:28;3.97;;;0.65;;
74626;SDS011;63132;52.268;5.192;2023-08-06T16:51:53;4.78;;;1.10;;
74626;SDS011;63132;52.268;5.192;2023-08-06T16:54:18;8.63;;;1.20;;
74626;SDS011;63132;52.268;5.192;2023-08-06T16:56:44;5.95;;;1.13;;
74626;SDS011;63132;52.268;5.192;2023-08-06T16:59:09;6.65;;;1.13;;
74626;SDS011;63132;52.268;5.192;2023-08-06T17:01:35;4.78;;;0.90;;
74626;SDS011;63132;52.268;5.192;2023-08-06T17:04:01;7.25;;;1.30;;
74626;SDS011;63132;52.268;5.192;2023-08-06T17:08:51;6.97;;;1.33;;
74626;SDS011;63132;52.268;5.192;2023-08-06T17:11:17;5.70;;;1.33;;
74626;SDS011;63132;52.268;5.192;2023-08-06T17:16:07;9.67;;;1.97;;
74626;SDS011;63132;52.268;5.192;2023-08-06T17:20:59;9.82;;;1.70;;
74626;SDS011;63132;52.268;5.192;2023-08-06T17:23:25;13.25;;;1.80;;
74626;SDS011;63132;52.268;5.192;2023-08-06T17:28:17;8.20;;;2.30;;
74626;SDS011;63132;52.268;5.192;2023-08-06T17:33:08;7.78;;;1.65;;
74626;SDS011;63132;52.268;5.192;2023-08-06T17:35:34;8.02;;;1.75;;
74626;SDS011;63132;52.268;5.192;2023-08-06T17:40:26;15.48;;;2.30;;
74626;SDS011;63132;52.268;5.192;2023-08-06T17:42:53;8.20;;;1.60;;
74626;SDS011;63132;52.268;5.192;2023-08-06T17:47:43;7.78;;;1.70;;
74626;SDS011;63132;52.268;5.192;2023-08-06T17:52:34;14.05;;;1.80;;
74626;SDS011;63132;52.268;5.192;2023-08-06T17:57:25;11.10;;;1.63;;
74626;SDS011;63132;52.268;5.192;2023-08-06T18:02:15;9.52;;;1.60;;
74626;SDS011;63132;52.268;5.192;2023-08-06T18:07:06;10.52;;;1.90;;
74626;SDS011;63132;52.268;5.192;2023-08-06T18:11:57;12.10;;;2.63;;
74626;SDS011;63132;52.268;5.192;2023-08-06T18:14:22;10.60;;;2.03;;
74626;SDS011;63132;52.268;5.192;2023-08-06T18:19:13;12.00;;;2.80;;
